7CO3 weather

Lindys Airpark
Hudson, Colorado, United States

Public forecast

Using degrees Fahrenheit for public forecast. Weather courtesy of forecast.io.

METAR (pilot weather report)

Closest report is Denver International Airport, 10.9 nm (20.1 km) SSW. Retrieved 2019/04/21 17:53 UTC (25 minutes ago):

KDEN 211753Z 06006KT 10SM SCT060 SCT110 SCT180 21/01 A2982 RMK AO2 LTG DSNT W SLP030 OCNL LTGCG DSNT SW-W CB OMTNS DSNT SW-W T02060011 10206 20111 50000

TAF (pilot weather forecast)

Closest forecast is Denver International Airport, 10.9 nm (20.1 km) SSW. Retrieved 2019/04/21 18:00 UTC (18 minutes ago):

TAF KDEN 211758Z 2118/2224 03010KT P6SM SCT060 SCT100 FM211900 03016G24KT P6SM BKN060 OVC100 TEMPO 2120/2123 VRB20G30KT -TSRA BKN050CB FM220000 35020G28KT P6SM -SHRA SCT015 OVC040 TEMPO 2200/2202 -SHRA BKN025 FM220200 01014G22KT 5SM -RA BR BKN012 OVC022 FM221200 05010KT P6SM BKN012 OVC022 TEMPO 2212/2216 5SM -SHRA BR BKN006